Hurlburt Field, FL (32544)

3:41 PM CDT on August 29, 2015 (GMT -0500)
Parrish Point | | Change Station
CLOSE
Current Station
Personal Weather Station
Location: Mary Esther, FL
Elevation: 10 ft
Nearby Weather Stations

Elev 10 ft 30.41 °N, 86.75 °W | Updated 19 seconds ago

Clear
Clear
84.6 °F
Feels Like 92 °F
N
1.6
Wind Variable Wind from NNW
Gusts 1.6 mph

Today
High -- | Low -- °F
--% Chance of Precip.
Yesterday
High -- | Low -- °F
Precip. -- in
6:21 AM 7:13 PM
Full, 100% visible
Pressure 30.04 in
Visibility 10.0 miles
Clouds Clear
Heat Index 92 °F
Dew Point 74 °F
Humidity 71%
Rainfall 1.57 in
Snow Depth Not available.
UV 9 out of 12
Pollen 6.90 out of 12
Air Quality Not available.
Flu Activity Not available.
METAR KHRT 291958Z AUTO 15008KT 10SM CLR 29/23 A3003 RMK AO2 RAB23E29 SLP171 P0000 T02870225 $
Pressure 30.04 in
Visibility 10.0 miles
Clouds Clear
Heat Index 92 °F
Dew Point 74 °F
Humidity 71%
Rainfall 1.57 in
Snow Depth Not available.
UV 9 out of 12
Pollen 6.90 out of 12
Air Quality Not available.
Flu Activity Not available.
METAR KHRT 291958Z AUTO 15008KT 10SM CLR 29/23 A3003 RMK AO2 RAB23E29 SLP171 P0000 T02870225 $

10-Day Weather Forecast

×

Almanac

Astronomy

Aug. 29, 2015 Rise Set
Actual Time
Civil Twilight
Nautical Twilight
Astronomical Twilight
Moon
Length of Visible Light
Length of Day
Tomorrow will be .
, % of the Moon is Illuminated

Today's Extremes

State Highs State Lows

Community

WunderPhotos

Upload Photos

1,850,793 photos uploaded!

WunderBlogs® & News

Nearby

Air Quality

  Air Quality AQ Index Pollutant
Not available.

Snow Depth

Station Depth Elevation

Earthquake Activity

City Distance Mag. Time & Date
Minimum magnitude displayed is 2.5.

Coastal Water Temperatures

Place Temperature

Stations

Nearby Weather Stations

Station Location Temp. Windchill Dew Point Humidity Wind Precip. Elev Updated Type